Time;durP1;ratioP1;P1;durP2;ratioP2;P2;SDS_P1;SDS_P2;PMS_P1;PMS_P2;Temp;Humidity;BMP_temperature;BMP_pressure;BME280_temperature;BME280_humidity;BME280_pressure;Samples;Min_cycle;Max_cycle;Signal;HPM_P1;HPM_P2
2023/02/15 00:01:30;;;;;;;24.20;16.07;;;7.60;99.90;;;;;;5037851;28;20473;-78
2023/02/15 00:03:56;;;;;;;24.17;16.77;;;7.60;99.90;;;;;;5037079;28;20516;-79
2023/02/15 00:06:22;;;;;;;23.90;16.60;;;7.50;99.90;;;;;;5050458;28;20463;-78
2023/02/15 00:08:47;;;;;;;20.87;16.33;;;7.50;99.90;;;;;;5034526;28;20179;-77
2023/02/15 00:11:16;;;;;;;21.13;16.00;;;7.20;99.90;;;;;;5033645;28;20437;-77
2023/02/15 00:13:42;;;;;;;23.07;16.30;;;7.40;99.90;;;;;;5035283;28;20186;-76
2023/02/15 00:16:12;;;;;;;23.67;16.87;;;7.40;99.90;;;;;;5018261;28;20465;-77
2023/02/15 00:18:39;;;;;;;19.93;15.77;;;7.40;99.90;;;;;;5049644;28;20640;-78
2023/02/15 00:21:07;;;;;;;22.50;15.97;;;7.30;99.90;;;;;;5053686;28;20416;-79
2023/02/15 00:23:33;;;;;;;21.30;16.13;;;7.40;99.90;;;;;;5054208;28;20408;-78
2023/02/15 00:26:12;;;;;;;23.73;16.50;;;7.30;99.90;;;;;;5055464;28;20416;-78
2023/02/15 00:28:38;;;;;;;24.73;16.03;;;7.50;99.90;;;;;;5055041;28;20362;-78
2023/02/15 00:31:11;;;;;;;21.70;16.00;;;7.40;99.90;;;;;;5036764;28;20408;-78
2023/02/15 00:33:38;;;;;;;22.90;15.57;;;7.50;99.90;;;;;;5053545;28;20827;-78
2023/02/15 00:36:08;;;;;;;25.20;17.47;;;7.40;99.90;;;;;;5036829;28;20449;-78
2023/02/15 00:38:34;;;;;;;26.60;17.30;;;7.00;99.90;;;;;;5033175;28;20423;-78
2023/02/15 00:41:02;;;;;;;22.83;16.10;;;7.40;99.90;;;;;;5033121;28;20520;-78
2023/02/15 00:43:29;;;;;;;22.27;16.90;;;7.20;99.90;;;;;;5033842;28;20901;-78
2023/02/15 00:45:55;;;;;;;27.03;16.73;;;7.10;99.90;;;;;;5035217;28;20420;-78
2023/02/15 00:48:21;;;;;;;25.77;16.67;;;7.00;99.90;;;;;;5033987;28;20421;-78
2023/02/15 00:50:50;;;;;;;21.27;15.33;;;6.90;99.90;;;;;;5049614;28;20484;-78
2023/02/15 00:53:16;;;;;;;24.47;16.50;;;7.00;99.90;;;;;;5033715;28;20588;-78
2023/02/15 00:55:43;;;;;;;23.47;17.47;;;7.00;99.90;;;;;;5015952;28;20480;-78
2023/02/15 00:58:11;;;;;;;25.43;16.97;;;6.80;99.90;;;;;;5032993;28;20463;-77
2023/02/15 01:00:37;;;;;;;23.00;16.67;;;6.90;99.90;;;;;;5032804;28;20773;-78
2023/02/15 01:03:04;;;;;;;24.50;17.97;;;6.80;99.90;;;;;;5033493;28;20437;-78
2023/02/15 01:05:30;;;;;;;23.23;16.17;;;6.80;99.90;;;;;;5066330;28;20405;-78
2023/02/15 01:07:57;;;;;;;22.97;16.53;;;6.90;99.90;;;;;;5033124;28;20926;-78
2023/02/15 01:10:22;;;;;;;25.43;18.57;;;7.10;99.90;;;;;;5053522;28;20420;-78
2023/02/15 01:12:50;;;;;;;21.97;16.43;;;6.90;99.90;;;;;;5052661;28;20467;-78
2023/02/15 01:15:16;;;;;;;25.67;17.70;;;7.00;99.90;;;;;;5052653;28;20174;-77
2023/02/15 01:17:43;;;;;;;22.50;17.27;;;6.90;99.90;;;;;;5052526;28;20465;-76
2023/02/15 01:20:09;;;;;;;23.37;18.17;;;7.00;99.90;;;;;;5055309;28;20430;-78
2023/02/15 01:22:35;;;;;;;24.77;16.57;;;6.90;99.90;;;;;;5059341;28;20436;-77
2023/02/15 01:25:01;;;;;;;27.23;18.60;;;6.80;99.90;;;;;;5060241;28;20407;-78
2023/02/15 01:27:26;;;;;;;24.67;17.80;;;6.60;99.90;;;;;;5060502;28;20639;-78
2023/02/15 01:29:52;;;;;;;28.07;18.37;;;6.90;99.90;;;;;;5042538;28;20659;-76
2023/02/15 01:32:18;;;;;;;26.23;18.20;;;7.00;99.90;;;;;;5060712;28;20198;-78
2023/02/15 01:34:43;;;;;;;23.07;16.90;;;7.00;99.90;;;;;;5059831;28;20174;-78
2023/02/15 01:37:09;;;;;;;24.33;16.70;;;6.80;99.90;;;;;;5060483;28;20228;-78
2023/02/15 01:39:34;;;;;;;24.97;17.00;;;6.90;99.90;;;;;;5060231;28;20208;-76
2023/02/15 01:42:00;;;;;;;24.83;16.70;;;6.80;99.90;;;;;;5060462;28;20199;-78
2023/02/15 01:44:47;;;;;;;25.77;18.00;;;6.90;99.90;;;;;;5060768;28;20200;-78
2023/02/15 01:47:19;;;;;;;23.33;17.20;;;6.80;99.90;;;;;;5043123;28;20177;-77
2023/02/15 01:49:46;;;;;;;24.10;18.20;;;6.70;99.90;;;;;;5059308;28;20412;-78
2023/02/15 01:52:16;;;;;;;25.20;17.80;;;6.90;99.90;;;;;;5060288;28;20432;-78
2023/02/15 01:54:46;;;;;;;23.20;16.23;;;6.90;99.90;;;;;;5042060;28;20777;-79
2023/02/15 01:57:17;;;;;;;24.93;17.67;;;6.90;99.90;;;;;;5059183;28;20452;-79
2023/02/15 01:59:48;;;;;;;26.90;18.70;;;7.00;99.90;;;;;;5058527;28;20410;-77
2023/02/15 02:02:20;;;;;;;24.83;16.90;;;6.90;99.90;;;;;;5059995;28;20428;-78
2023/02/15 02:04:52;;;;;;;23.53;17.00;;;6.70;99.90;;;;;;5058095;28;20408;-78
2023/02/15 02:07:23;;;;;;;26.30;18.30;;;6.70;99.90;;;;;;5060224;28;20427;-78
2023/02/15 02:09:49;;;;;;;29.87;18.80;;;6.50;99.90;;;;;;5044496;28;20907;-79
2023/02/15 02:12:19;;;;;;;25.70;17.63;;;6.50;99.90;;;;;;5039836;28;20467;-79
2023/02/15 02:14:46;;;;;;;24.00;17.53;;;6.80;99.90;;;;;;5071647;28;20499;-79
2023/02/15 02:17:34;;;;;;;26.47;17.80;;;6.60;99.90;;;;;;5040335;28;20516;-79
2023/02/15 02:20:15;;;;;;;26.83;18.17;;;6.70;99.90;;;;;;5055462;28;20405;-78
2023/02/15 02:22:59;;;;;;;24.93;17.00;;;6.50;99.90;;;;;;5054887;28;20531;-78
2023/02/15 02:25:36;;;;;;;28.20;19.17;;;6.70;99.90;;;;;;5039345;28;20401;-79
2023/02/15 02:28:20;;;;;;;24.23;17.53;;;6.70;99.90;;;;;;5038673;28;20428;-78
2023/02/15 02:30:46;;;;;;;25.80;17.70;;;6.60;99.90;;;;;;5039904;28;20413;-80
2023/02/15 02:33:17;;;;;;;25.27;17.97;;;6.40;99.90;;;;;;5051039;28;20523;-79
2023/02/15 02:36:20;;;;;;;24.50;18.77;;;6.40;99.90;;;;;;5037234;28;20206;-79
2023/02/15 02:38:54;;;;;;;27.17;17.83;;;6.40;99.90;;;;;;5036093;28;20929;-79
2023/02/15 02:41:35;;;;;;;24.00;16.93;;;6.60;99.90;;;;;;5036558;28;20428;-80
2023/02/15 02:44:12;;;;;;;25.30;17.97;;;6.50;99.90;;;;;;5051516;28;20413;-79
2023/02/15 02:46:50;;;;;;;26.47;17.40;;;6.20;99.90;;;;;;5035803;28;20451;-79
2023/02/15 02:49:16;;;;;;;26.50;19.33;;;6.40;99.90;;;;;;5052908;28;20479;-79
2023/02/15 02:51:41;;;;;;;29.13;19.50;;;6.40;99.90;;;;;;5069292;28;20441;-78
2023/02/15 02:54:07;;;;;;;25.23;18.60;;;6.30;99.90;;;;;;5037030;28;20189;-78
2023/02/15 02:56:42;;;;;;;27.13;18.40;;;6.40;99.90;;;;;;5035813;28;20259;-77
2023/02/15 02:59:23;;;;;;;26.43;17.40;;;6.30;99.90;;;;;;5035058;28;20438;-78
2023/02/15 03:01:59;;;;;;;28.30;19.20;;;6.40;99.90;;;;;;5035355;28;20467;-77
2023/02/15 03:04:31;;;;;;;28.07;17.93;;;6.40;99.90;;;;;;5068858;28;20424;-79
2023/02/15 03:07:04;;;;;;;24.27;18.50;;;6.40;99.90;;;;;;5035235;28;20414;-78
2023/02/15 03:09:52;;;;;;;26.70;18.00;;;6.20;99.90;;;;;;5047576;28;20421;-79
2023/02/15 03:12:25;;;;;;;27.37;19.80;;;6.30;99.90;;;;;;5056661;28;20447;-79
2023/02/15 03:15:00;;;;;;;29.00;19.23;;;6.30;99.90;;;;;;5049539;28;20474;-77
2023/02/15 03:17:28;;;;;;;24.57;17.03;;;6.10;99.90;;;;;;5050592;28;20557;-78
2023/02/15 03:20:00;;;;;;;27.37;19.47;;;6.20;99.90;;;;;;5049467;28;20405;-79
2023/02/15 03:22:40;;;;;;;29.60;18.43;;;6.30;99.90;;;;;;5049368;28;20436;-78
2023/02/15 03:25:35;;;;;;;28.43;19.27;;;6.10;99.90;;;;;;5049928;28;20420;-79
2023/02/15 03:28:07;;;;;;;26.30;18.70;;;6.10;99.90;;;;;;5046484;28;20421;-79
2023/02/15 03:30:35;;;;;;;25.87;18.47;;;6.20;99.90;;;;;;5032687;28;20430;-79
2023/02/15 03:33:03;;;;;;;26.70;19.17;;;6.10;99.90;;;;;;5050488;28;20862;-79
2023/02/15 03:35:37;;;;;;;29.00;20.10;;;6.10;99.90;;;;;;5049581;28;20547;-79
2023/02/15 03:38:06;;;;;;;28.53;19.30;;;6.00;99.90;;;;;;5050520;28;20931;-79
2023/02/15 03:43:22;;;;;;;30.60;18.77;;;6.10;99.90;;;;;;5050513;28;20614;-79
2023/02/15 03:45:54;;;;;;;29.27;19.40;;;6.00;99.90;;;;;;5051742;28;20423;-78
2023/02/15 03:48:46;;;;;;;29.97;19.67;;;6.00;99.90;;;;;;5050298;28;20181;-78
2023/02/15 03:51:37;;;;;;;32.53;19.80;;;6.00;99.90;;;;;;5038386;28;20416;-78
2023/02/15 03:54:38;;;;;;;29.17;18.87;;;6.10;99.90;;;;;;5050814;28;21204;-78
2023/02/15 04:02:53;;;;;;;31.23;19.73;;;5.90;99.90;;;;;;5048589;28;20428;-78
2023/02/15 04:05:19;;;;;;;28.63;18.87;;;5.90;99.90;;;;;;5048485;28;20828;-78
2023/02/15 04:07:45;;;;;;;30.83;20.70;;;6.00;99.90;;;;;;5049648;28;20416;-78
2023/02/15 04:12:55;;;;;;;26.47;19.30;;;5.80;99.90;;;;;;5029750;28;20217;-78
2023/02/15 04:18:05;;;;;;;28.07;18.83;;;5.70;99.90;;;;;;5029647;28;20973;-79
2023/02/15 04:26:03;;;;;;;28.13;19.50;;;5.90;99.90;;;;;;5028924;28;20939;-78
2023/02/15 04:28:29;;;;;;;29.73;20.30;;;5.80;99.90;;;;;;5030238;28;20479;-78
2023/02/15 04:30:54;;;;;;;28.63;19.60;;;5.80;99.90;;;;;;5030482;28;20425;-78
2023/02/15 04:33:20;;;;;;;31.87;20.10;;;5.80;99.90;;;;;;5028645;28;20203;-79
2023/02/15 04:35:46;;;;;;;30.97;19.60;;;5.80;99.90;;;;;;5028255;28;20259;-78
2023/02/15 04:38:12;;;;;;;32.77;20.37;;;5.80;99.90;;;;;;5030362;28;20181;-78
2023/02/15 04:40:37;;;;;;;31.10;20.17;;;5.70;99.90;;;;;;5028996;28;20425;-79
2023/02/15 04:43:03;;;;;;;29.80;20.17;;;5.90;99.90;;;;;;5028644;28;20206;-79
2023/02/15 04:45:29;;;;;;;28.37;19.20;;;5.70;99.90;;;;;;5029494;28;20257;-78
2023/02/15 04:47:55;;;;;;;28.73;19.43;;;5.80;99.90;;;;;;5029224;28;20312;-78
2023/02/15 04:50:20;;;;;;;26.53;19.03;;;5.80;99.90;;;;;;5027852;28;20316;-78
2023/02/15 04:52:46;;;;;;;28.83;19.57;;;5.70;99.90;;;;;;5029076;28;20198;-79
2023/02/15 04:55:12;;;;;;;27.97;19.53;;;5.70;99.90;;;;;;5060666;28;20182;-78
2023/02/15 04:57:38;;;;;;;29.37;19.77;;;5.70;99.90;;;;;;5027790;28;20925;-79
2023/02/15 05:00:04;;;;;;;27.77;19.30;;;5.70;99.90;;;;;;5028252;28;20210;-78
2023/02/15 05:02:29;;;;;;;28.73;20.43;;;5.90;99.90;;;;;;5027710;28;20608;-78
2023/02/15 05:04:55;;;;;;;29.20;19.63;;;5.60;99.90;;;;;;5028832;28;20417;-78
2023/02/15 05:07:21;;;;;;;33.37;20.60;;;5.50;99.90;;;;;;5028804;28;20183;-79
2023/02/15 05:09:47;;;;;;;29.63;20.67;;;5.50;99.90;;;;;;5043349;28;20185;-78
2023/02/15 05:12:12;;;;;;;33.13;21.30;;;5.50;99.90;;;;;;5047388;28;20217;-79
2023/02/15 05:14:38;;;;;;;29.47;20.20;;;5.60;99.90;;;;;;5047612;28;20634;-79
2023/02/15 05:17:05;;;;;;;29.47;19.70;;;5.50;99.90;;;;;;5031063;28;20886;-78
2023/02/15 05:19:31;;;;;;;32.50;20.07;;;5.50;99.90;;;;;;5030748;28;20549;-78
2023/02/15 05:21:56;;;;;;;29.30;19.90;;;5.70;99.90;;;;;;5048868;28;20528;-78
2023/02/15 05:29:51;;;;;;;29.57;20.27;;;5.60;99.90;;;;;;5048367;28;20416;-78
2023/02/15 05:32:17;;;;;;;29.07;20.20;;;5.40;99.90;;;;;;5048634;28;20871;-78
2023/02/15 05:34:43;;;;;;;26.60;19.40;;;5.50;99.90;;;;;;5047146;28;20177;-78
2023/02/15 05:37:08;;;;;;;30.57;20.50;;;5.60;99.90;;;;;;5030554;28;20312;-78
2023/02/15 05:39:34;;;;;;;31.37;20.43;;;5.50;99.90;;;;;;5048193;28;20181;-78
2023/02/15 05:42:00;;;;;;;32.03;20.50;;;5.50;99.90;;;;;;5047349;28;20236;-78
2023/02/15 05:44:26;;;;;;;30.27;20.47;;;5.60;99.90;;;;;;5048339;28;20178;-78
2023/02/15 05:46:51;;;;;;;29.47;18.37;;;5.50;99.90;;;;;;5047058;28;20789;-78
2023/02/15 05:49:17;;;;;;;33.57;19.30;;;5.70;99.90;;;;;;5048411;28;20598;-78
2023/02/15 05:51:43;;;;;;;28.50;19.73;;;5.50;99.90;;;;;;5047098;28;20480;-78
2023/02/15 05:54:08;;;;;;;33.90;20.90;;;5.70;99.90;;;;;;5048186;28;20193;-78
2023/02/15 05:56:34;;;;;;;30.47;19.83;;;5.50;99.90;;;;;;5048281;28;20579;-77
2023/02/15 05:58:59;;;;;;;34.13;21.40;;;5.60;99.90;;;;;;5048157;28;20595;-78
2023/02/15 06:01:25;;;;;;;32.97;21.27;;;5.40;99.90;;;;;;5047286;28;20717;-78
2023/02/15 06:03:52;;;;;;;32.40;20.23;;;5.50;99.90;;;;;;5048032;28;20174;-78
2023/02/15 06:06:17;;;;;;;26.33;19.27;;;5.30;99.90;;;;;;5048403;28;20276;-78
2023/02/15 06:08:43;;;;;;;32.00;19.83;;;5.40;99.90;;;;;;5045533;28;21004;-79
2023/02/15 06:11:09;;;;;;;30.47;21.23;;;5.40;99.90;;;;;;5031963;28;20208;-77
2023/02/15 06:13:35;;;;;;;36.03;20.10;;;5.50;99.90;;;;;;5030739;28;20429;-77
2023/02/15 06:16:01;;;;;;;31.83;21.30;;;5.40;99.90;;;;;;5030807;28;20221;-78
2023/02/15 06:18:26;;;;;;;32.57;20.90;;;5.60;99.90;;;;;;5030552;28;20421;-79
2023/02/15 06:20:53;;;;;;;28.63;19.27;;;5.50;99.90;;;;;;5031926;28;20179;-78
2023/02/15 06:23:19;;;;;;;28.77;18.90;;;5.70;99.90;;;;;;5031686;28;20206;-77
2023/02/15 06:25:45;;;;;;;30.20;19.10;;;5.40;99.90;;;;;;5031906;28;20417;-77
2023/02/15 06:28:11;;;;;;;30.20;19.40;;;5.50;99.90;;;;;;5031830;28;20187;-77
2023/02/15 06:30:37;;;;;;;29.10;19.50;;;5.60;99.90;;;;;;5031610;28;20427;-78
2023/02/15 06:33:02;;;;;;;32.37;19.87;;;5.50;99.90;;;;;;5031688;28;20205;-77
2023/02/15 06:35:28;;;;;;;30.33;19.77;;;5.40;99.90;;;;;;5031943;28;20186;-77
2023/02/15 06:37:54;;;;;;;27.57;17.80;;;5.50;99.90;;;;;;5031592;28;20647;-78
2023/02/15 06:40:19;;;;;;;30.03;19.40;;;5.50;99.90;;;;;;5030194;28;20179;-77
2023/02/15 06:42:45;;;;;;;26.13;19.40;;;5.30;99.90;;;;;;5028313;28;20214;-76
2023/02/15 06:45:11;;;;;;;28.73;19.00;;;5.40;99.90;;;;;;5027732;28;20240;-76
2023/02/15 06:47:37;;;;;;;32.50;19.73;;;5.40;99.90;;;;;;5030288;28;20175;-75
2023/02/15 06:50:05;;;;;;;30.30;21.23;;;5.70;99.90;;;;;;5030195;28;20451;-76
2023/02/15 06:52:31;;;;;;;32.10;19.50;;;5.50;99.90;;;;;;5031166;28;20202;-77
2023/02/15 06:54:56;;;;;;;28.70;19.07;;;5.50;99.90;;;;;;5030037;28;20425;-77
2023/02/15 06:57:22;;;;;;;27.83;20.70;;;5.60;99.90;;;;;;5031230;28;20237;-77
2023/02/15 06:59:48;;;;;;;28.43;20.20;;;5.50;99.90;;;;;;5031340;28;20182;-77
2023/02/15 07:02:14;;;;;;;28.53;19.20;;;5.60;99.90;;;;;;5029734;28;20737;-77
2023/02/15 07:04:40;;;;;;;24.93;17.47;;;5.60;99.90;;;;;;5029876;28;20555;-77
2023/02/15 07:07:09;;;;;;;30.03;19.00;;;5.40;99.90;;;;;;5031183;28;20433;-77
2023/02/15 07:09:35;;;;;;;31.83;18.97;;;5.70;99.90;;;;;;5043996;28;20268;-77
2023/02/15 07:14:44;;;;;;;31.53;19.50;;;5.60;99.90;;;;;;5049582;28;20181;-78
2023/02/15 07:17:10;;;;;;;28.90;20.07;;;5.60;99.90;;;;;;5050507;28;20466;-77
2023/02/15 07:19:36;;;;;;;27.47;18.07;;;5.70;99.90;;;;;;5032615;28;20209;-78
2023/02/15 07:22:03;;;;;;;29.97;20.00;;;5.60;99.90;;;;;;5049439;28;20220;-77
2023/02/15 07:24:29;;;;;;;29.77;20.37;;;5.50;99.90;;;;;;5049444;28;20204;-79
2023/02/15 07:26:54;;;;;;;31.07;19.33;;;5.70;99.90;;;;;;5016419;28;20425;-78
2023/02/15 07:29:20;;;;;;;27.10;17.53;;;5.50;99.90;;;;;;5009816;28;20191;-78
2023/02/15 07:31:46;;;;;;;29.30;19.73;;;5.60;99.90;;;;;;5010748;28;20207;-78
2023/02/15 07:34:12;;;;;;;27.97;17.93;;;5.70;99.90;;;;;;5010776;28;20187;-79
2023/02/15 07:36:37;;;;;;;28.80;19.47;;;5.70;99.90;;;;;;5026903;28;20246;-78
2023/02/15 07:39:03;;;;;;;28.93;19.67;;;5.90;99.90;;;;;;5030519;28;20841;-78
2023/02/15 07:41:29;;;;;;;34.60;20.87;;;5.80;99.90;;;;;;5029852;28;20281;-78
2023/02/15 07:43:54;;;;;;;29.37;18.60;;;6.10;99.90;;;;;;5012134;28;20655;-77
2023/02/15 07:46:21;;;;;;;28.07;19.07;;;6.00;99.90;;;;;;5030254;28;20241;-78
2023/02/15 07:48:47;;;;;;;26.67;19.17;;;6.10;99.90;;;;;;5028090;28;20305;-79
2023/02/15 07:51:14;;;;;;;28.20;18.10;;;5.90;99.90;;;;;;5026863;28;20448;-78
2023/02/15 07:53:40;;;;;;;24.90;17.43;;;6.40;99.90;;;;;;5029867;28;20213;-78
2023/02/15 07:56:13;;;;;;;28.03;18.33;;;6.40;99.90;;;;;;5030260;28;20511;-78
2023/02/15 07:58:51;;;;;;;25.70;17.17;;;6.60;99.90;;;;;;5028809;28;20445;-78
2023/02/15 08:01:36;;;;;;;24.87;16.33;;;6.50;99.90;;;;;;5029571;28;20954;-78
2023/02/15 08:04:04;;;;;;;26.23;15.83;;;6.80;99.90;;;;;;5029055;28;20439;-78
2023/02/15 08:06:32;;;;;;;30.63;17.63;;;7.00;99.90;;;;;;5029103;28;20474;-78
2023/02/15 08:08:58;;;;;;;23.80;16.43;;;7.00;99.90;;;;;;5035974;28;20432;-78
2023/02/15 08:11:26;;;;;;;23.53;16.23;;;7.00;99.90;;;;;;5047871;28;20462;-78
2023/02/15 08:13:54;;;;;;;24.13;16.47;;;7.40;99.90;;;;;;5048207;28;20280;-78
2023/02/15 08:16:42;;;;;;;25.63;16.10;;;7.40;99.90;;;;;;5049742;28;20460;-78
2023/02/15 08:19:32;;;;;;;32.37;18.40;;;7.60;99.90;;;;;;5021581;28;20433;-78
2023/02/15 08:21:59;;;;;;;26.80;17.17;;;7.70;99.90;;;;;;5029631;28;20803;-78
2023/02/15 08:24:29;;;;;;;28.03;17.97;;;8.00;99.90;;;;;;5025269;28;20429;-78
2023/02/15 08:26:56;;;;;;;23.13;15.90;;;8.20;99.90;;;;;;5021207;28;20852;-78
2023/02/15 08:29:27;;;;;;;23.40;17.00;;;8.40;99.90;;;;;;5010273;28;20949;-78
2023/02/15 08:32:01;;;;;;;23.50;15.63;;;8.60;99.90;;;;;;5025500;28;20488;-78
2023/02/15 08:34:28;;;;;;;22.53;16.90;;;9.40;99.90;;;;;;5029416;28;20421;-78
2023/02/15 08:36:54;;;;;;;24.90;17.50;;;10.10;99.90;;;;;;5031266;28;20472;-78
2023/02/15 08:39:21;;;;;;;23.77;16.70;;;10.00;99.90;;;;;;5037232;28;20787;-78
2023/02/15 08:41:50;;;;;;;22.70;15.00;;;10.10;99.90;;;;;;5020089;28;20489;-77
2023/02/15 08:44:18;;;;;;;22.13;15.77;;;10.10;99.90;;;;;;5035824;28;20410;-78
2023/02/15 08:46:45;;;;;;;23.30;16.50;;;10.00;99.90;;;;;;5027984;28;20607;-78
2023/02/15 08:49:20;;;;;;;23.57;15.80;;;9.90;99.90;;;;;;5011756;28;20491;-78
2023/02/15 08:51:47;;;;;;;22.60;16.37;;;10.00;99.90;;;;;;5028241;28;20522;-78
2023/02/15 08:54:15;;;;;;;18.50;15.30;;;10.20;99.90;;;;;;5029095;28;20463;-78
2023/02/15 08:56:43;;;;;;;19.03;13.70;;;10.30;99.90;;;;;;5002112;28;20461;-79
2023/02/15 08:59:27;;;;;;;26.57;16.23;;;10.40;99.90;;;;;;5001593;28;20418;-78
2023/02/15 09:01:53;;;;;;;24.27;16.50;;;10.60;99.90;;;;;;5026231;28;20437;-78
2023/02/15 09:04:20;;;;;;;23.03;16.70;;;10.80;99.90;;;;;;5028374;28;20459;-78
2023/02/15 09:06:48;;;;;;;24.50;16.07;;;10.90;99.90;;;;;;5024139;28;20429;-78
2023/02/15 09:09:14;;;;;;;23.73;14.43;;;11.10;99.90;;;;;;5025882;28;20479;-78
2023/02/15 09:11:42;;;;;;;20.33;14.63;;;11.20;99.90;;;;;;5029128;28;20461;-78
2023/02/15 09:14:15;;;;;;;21.13;14.70;;;11.40;99.90;;;;;;5029644;28;20425;-76
2023/02/15 09:16:45;;;;;;;21.13;15.17;;;11.50;99.50;;;;;;5031738;28;20476;-79
2023/02/15 09:19:11;;;;;;;22.53;15.40;;;11.60;99.60;;;;;;5035942;28;20475;-77
2023/02/15 09:21:38;;;;;;;20.90;13.97;;;11.70;99.10;;;;;;5017956;28;21032;-79
2023/02/15 09:24:07;;;;;;;18.40;13.77;;;11.80;99.10;;;;;;5035169;28;20930;-78
2023/02/15 09:26:36;;;;;;;18.30;13.43;;;11.90;99.10;;;;;;5018991;28;20420;-78
2023/02/15 09:29:03;;;;;;;19.27;14.40;;;11.90;98.10;;;;;;5034781;28;20432;-78
2023/02/15 09:31:31;;;;;;;18.03;13.67;;;11.90;97.80;;;;;;5034369;28;20452;-79
2023/02/15 09:34:00;;;;;;;17.70;13.70;;;11.90;98.70;;;;;;5035142;28;20429;-79
2023/02/15 09:36:35;;;;;;;18.87;14.10;;;12.00;98.20;;;;;;5017930;28;20473;-78
2023/02/15 09:39:07;;;;;;;17.63;13.93;;;12.20;98.80;;;;;;5034253;28;20913;-79
2023/02/15 09:41:52;;;;;;;21.87;15.13;;;12.40;98.30;;;;;;5036002;28;20436;-79
2023/02/15 09:45:00;;;;;;;23.70;13.33;;;12.40;96.70;;;;;;5030076;28;20500;-79
2023/02/15 09:47:43;;;;;;;20.93;13.57;;;12.50;97.10;;;;;;5023566;28;20571;-79
2023/02/15 09:50:27;;;;;;;18.10;13.50;;;12.70;97.80;;;;;;5039146;28;20421;-79
2023/02/15 09:53:36;;;;;;;18.83;14.23;;;12.80;96.90;;;;;;5011578;28;20471;-79
2023/02/15 09:56:15;;;;;;;20.00;13.50;;;13.00;97.70;;;;;;5022965;28;20868;-76
2023/02/15 09:58:56;;;;;;;21.43;13.43;;;13.10;97.50;;;;;;5029221;28;20431;-77
2023/02/15 10:01:37;;;;;;;18.60;12.97;;;13.20;97.70;;;;;;5036145;28;20455;-78
2023/02/15 10:04:05;;;;;;;19.03;13.40;;;13.40;97.10;;;;;;5037001;28;20613;-78
2023/02/15 10:06:54;;;;;;;20.50;14.37;;;13.50;97.70;;;;;;5034750;28;20977;-78
2023/02/15 10:09:50;;;;;;;16.23;12.57;;;13.70;97.30;;;;;;5036980;28;20510;-76
2023/02/15 10:12:56;;;;;;;17.57;13.23;;;13.90;95.70;;;;;;5033339;28;20460;-79
2023/02/15 10:15:26;;;;;;;15.47;12.70;;;14.10;94.80;;;;;;5038481;28;20564;-78
2023/02/15 10:18:06;;;;;;;15.50;11.97;;;14.20;94.50;;;;;;5029328;28;20409;-77
2023/02/15 10:20:44;;;;;;;17.50;12.77;;;14.30;95.30;;;;;;5038369;28;20492;-78
2023/02/15 10:23:37;;;;;;;15.60;12.63;;;14.50;95.80;;;;;;5036526;28;20997;-77
2023/02/15 10:26:22;;;;;;;16.47;12.43;;;14.60;95.80;;;;;;5039663;28;20528;-79
2023/02/15 10:28:51;;;;;;;17.10;13.07;;;14.80;95.10;;;;;;5036168;28;20494;-78
2023/02/15 10:31:27;;;;;;;16.40;12.10;;;15.00;93.90;;;;;;5044108;28;20439;-77
2023/02/15 10:33:58;;;;;;;16.73;12.80;;;15.20;94.10;;;;;;5036925;28;20412;-79
2023/02/15 10:37:10;;;;;;;16.80;12.50;;;15.30;94.50;;;;;;5041800;28;20564;-78
2023/02/15 10:39:42;;;;;;;17.70;13.73;;;15.50;93.90;;;;;;5035567;28;20413;-78
2023/02/15 10:42:26;;;;;;;14.80;12.60;;;15.60;93.70;;;;;;5040034;28;20531;-79
2023/02/15 10:45:24;;;;;;;14.83;13.17;;;15.80;93.10;;;;;;5036147;28;20420;-78
2023/02/15 10:48:16;;;;;;;18.60;13.83;;;15.90;92.70;;;;;;5015598;28;20432;-78
2023/02/15 10:50:47;;;;;;;18.33;14.70;;;15.80;92.80;;;;;;5029953;28;20506;-78
2023/02/15 10:53:28;;;;;;;15.40;12.73;;;15.80;92.30;;;;;;5037461;28;20437;-77
2023/02/15 10:56:30;;;;;;;19.00;13.63;;;15.70;93.00;;;;;;5035463;28;20461;-78
2023/02/15 10:59:36;;;;;;;14.57;12.17;;;15.60;91.70;;;;;;5043032;28;20431;-78
2023/02/15 11:02:18;;;;;;;18.33;12.73;;;15.40;91.50;;;;;;4995193;28;20481;-79
2023/02/15 11:05:10;;;;;;;13.47;11.97;;;15.20;92.10;;;;;;5036129;28;20448;-79
2023/02/15 11:07:41;;;;;;;14.90;11.70;;;15.10;92.80;;;;;;5033723;28;20956;-78
2023/02/15 11:10:25;;;;;;;16.50;12.13;;;14.90;93.00;;;;;;5019194;28;20610;-78
2023/02/15 11:12:51;;;;;;;14.57;12.30;;;14.90;92.40;;;;;;5028631;28;20559;-77
2023/02/15 11:15:41;;;;;;;16.90;11.57;;;14.80;92.50;;;;;;5034297;28;20950;-79
2023/02/15 11:18:25;;;;;;;14.20;11.57;;;14.70;93.50;;;;;;5031775;28;20432;-79
2023/02/15 11:21:09;;;;;;;14.40;11.30;;;14.70;93.60;;;;;;5035674;28;20431;-79
2023/02/15 11:23:40;;;;;;;15.73;12.10;;;14.60;93.40;;;;;;5040105;28;20424;-78
2023/02/15 11:26:14;;;;;;;17.27;11.87;;;14.60;92.90;;;;;;5034909;28;20619;-78
2023/02/15 11:28:49;;;;;;;16.37;11.60;;;14.60;92.80;;;;;;5037168;28;20428;-78
2023/02/15 11:31:25;;;;;;;11.33;10.03;;;14.60;93.60;;;;;;5018363;28;20563;-78
2023/02/15 11:34:15;;;;;;;16.13;11.27;;;14.60;92.10;;;;;;5036702;28;20807;-79
2023/02/15 11:36:44;;;;;;;14.37;10.33;;;14.50;92.30;;;;;;5034664;28;20735;-79
2023/02/15 11:39:13;;;;;;;13.40;9.83;;;14.50;92.60;;;;;;5032042;28;20422;-79
2023/02/15 11:41:44;;;;;;;15.23;9.77;;;14.40;92.30;;;;;;5035436;28;20527;-79
2023/02/15 11:44:23;;;;;;;10.87;9.57;;;14.40;92.10;;;;;;5039515;28;20435;-79
2023/02/15 11:46:49;;;;;;;11.97;9.60;;;14.40;93.00;;;;;;5017700;28;20904;-79
2023/02/15 11:49:31;;;;;;;11.67;9.67;;;14.40;92.80;;;;;;5036803;28;20456;-76
2023/02/15 11:51:59;;;;;;;13.90;9.23;;;14.50;92.80;;;;;;5029783;28;20964;-78
2023/02/15 11:54:32;;;;;;;12.90;9.50;;;14.60;92.60;;;;;;5025042;28;20530;-76
2023/02/15 11:57:03;;;;;;;12.57;8.40;;;14.70;91.90;;;;;;5033476;28;20543;-78
2023/02/15 11:59:36;;;;;;;11.20;8.77;;;14.90;92.30;;;;;;5035785;28;20448;-77
2023/02/15 12:02:02;;;;;;;11.40;9.67;;;15.00;92.00;;;;;;5033624;28;20503;-78
2023/02/15 12:04:39;;;;;;;12.03;8.53;;;15.10;91.40;;;;;;5035821;28;20423;-77
2023/02/15 12:07:22;;;;;;;11.13;9.00;;;15.10;91.00;;;;;;5028705;28;20176;-77
2023/02/15 12:10:11;;;;;;;12.60;9.00;;;15.30;91.00;;;;;;5043567;28;20447;-78
2023/02/15 12:12:37;;;;;;;12.23;9.10;;;15.40;90.50;;;;;;5036816;28;20538;-78
2023/02/15 12:15:08;;;;;;;15.20;9.57;;;15.40;89.90;;;;;;5015673;28;20437;-77
2023/02/15 12:17:53;;;;;;;13.87;10.00;;;15.50;90.00;;;;;;5014447;28;20268;-78
2023/02/15 12:20:18;;;;;;;11.80;9.50;;;15.60;88.10;;;;;;5034886;28;21591;-78
2023/02/15 12:23:14;;;;;;;12.53;8.80;;;15.60;89.00;;;;;;5034742;28;20440;-78
2023/02/15 12:25:54;;;;;;;12.03;9.40;;;15.70;88.70;;;;;;5031380;28;20285;-78
2023/02/15 12:28:40;;;;;;;11.20;8.03;;;15.70;88.20;;;;;;5008527;28;20432;-76
2023/02/15 12:31:27;;;;;;;13.03;9.27;;;15.70;86.30;;;;;;5025018;28;20425;-78
2023/02/15 12:33:57;;;;;;;10.90;8.40;;;15.80;87.00;;;;;;5034869;28;20417;-78
2023/02/15 12:36:28;;;;;;;10.10;8.40;;;15.90;88.60;;;;;;5033433;28;20839;-78
2023/02/15 12:39:12;;;;;;;11.67;8.20;;;15.90;90.10;;;;;;5033914;28;20418;-77
2023/02/15 12:41:54;;;;;;;15.40;11.67;;;15.90;87.00;;;;;;5033030;28;20447;-78
2023/02/15 12:44:25;;;;;;;18.40;15.70;;;15.90;86.50;;;;;;5025825;28;20413;-78
2023/02/15 12:47:17;;;;;;;12.73;9.07;;;15.90;86.50;;;;;;5014934;28;20442;-78
2023/02/15 12:49:45;;;;;;;11.37;7.87;;;15.90;86.00;;;;;;5014106;28;20451;-78
2023/02/15 12:52:20;;;;;;;9.73;7.93;;;15.90;83.40;;;;;;5014506;28;20776;-78
2023/02/15 12:54:46;;;;;;;12.57;8.77;;;15.90;84.00;;;;;;5014170;28;20518;-77
2023/02/15 12:57:31;;;;;;;13.37;8.40;;;15.90;82.70;;;;;;5013662;28;20469;-79
2023/02/15 13:00:18;;;;;;;10.50;8.43;;;15.90;82.40;;;;;;5015057;28;20418;-78
2023/02/15 13:02:49;;;;;;;10.40;8.20;;;15.90;83.60;;;;;;4997062;28;20500;-78
2023/02/15 13:05:39;;;;;;;11.93;8.27;;;15.90;83.20;;;;;;4997291;28;20425;-77
2023/02/15 13:08:14;;;;;;;10.97;8.20;;;15.80;82.10;;;;;;5024007;28;20444;-77
2023/02/15 13:10:53;;;;;;;13.07;8.37;;;15.80;81.50;;;;;;5033822;28;20496;-78
2023/02/15 13:13:28;;;;;;;11.63;8.83;;;15.90;84.00;;;;;;5034003;28;21023;-78
2023/02/15 13:16:01;;;;;;;12.27;9.17;;;15.90;83.60;;;;;;5033625;28;20468;-77
2023/02/15 13:18:38;;;;;;;10.00;8.63;;;15.80;82.10;;;;;;5031467;28;21014;-77
2023/02/15 13:21:23;;;;;;;11.90;8.50;;;15.70;82.00;;;;;;5027474;28;20491;-78
2023/02/15 13:23:56;;;;;;;11.53;8.67;;;15.80;82.20;;;;;;5033933;28;20480;-78
2023/02/15 13:26:26;;;;;;;12.97;9.90;;;15.80;82.50;;;;;;5033908;28;20436;-78
2023/02/15 13:28:55;;;;;;;12.80;9.90;;;15.70;81.40;;;;;;5032461;28;20440;-78